createdAt,value
2019-03-04T00:01:12.343Z,1.62
2019-03-04T00:03:38.444Z,1.50
2019-03-04T00:06:04.503Z,1.52
2019-03-04T00:08:32.774Z,1.40
2019-03-04T00:10:58.590Z,1.00
2019-03-04T00:13:24.763Z,1.62
2019-03-04T00:15:50.939Z,1.65
2019-03-04T00:18:17.062Z,1.35
2019-03-04T00:20:43.137Z,1.45
2019-03-04T00:23:09.204Z,1.40
2019-03-04T00:25:35.299Z,1.15
2019-03-04T00:28:01.367Z,1.40
2019-03-04T00:30:27.466Z,1.50
2019-03-04T00:32:53.527Z,1.50
2019-03-04T00:35:19.620Z,1.15
2019-03-04T00:37:45.688Z,1.70
2019-03-04T00:40:14.678Z,1.50
2019-03-04T00:42:41.458Z,1.50
2019-03-04T00:45:09.886Z,1.10
2019-03-04T00:47:35.975Z,1.40
2019-03-04T00:50:04.575Z,1.40
2019-03-04T00:52:30.647Z,2.00
2019-03-04T00:54:56.744Z,1.55
2019-03-04T00:57:22.807Z,1.45
2019-03-04T00:59:48.906Z,1.15
2019-03-04T01:02:15.000Z,1.90
2019-03-04T01:04:41.167Z,1.40
2019-03-04T01:07:07.243Z,1.70
2019-03-04T01:09:33.335Z,1.37
2019-03-04T01:11:59.424Z,1.55
2019-03-04T01:14:25.636Z,1.52
2019-03-04T01:16:51.728Z,1.72
2019-03-04T01:19:17.823Z,1.62
2019-03-04T01:21:43.906Z,1.80
2019-03-04T01:24:10.093Z,1.50
2019-03-04T01:26:36.168Z,2.30
2019-03-04T01:29:02.508Z,1.45
2019-03-04T01:31:28.591Z,1.30
2019-03-04T01:33:54.673Z,1.80
2019-03-04T01:36:20.758Z,1.60
2019-03-04T01:38:46.846Z,1.40
2019-03-04T01:41:12.934Z,1.50
2019-03-04T01:43:39.003Z,1.62
2019-03-04T01:46:05.088Z,1.35
2019-03-04T01:48:31.153Z,1.60
2019-03-04T01:50:57.235Z,1.60
2019-03-04T01:53:23.307Z,1.92
2019-03-04T01:55:49.397Z,2.10
2019-03-04T01:58:15.503Z,1.95
2019-03-04T02:00:41.583Z,1.60
2019-03-04T02:03:07.662Z,1.47
2019-03-04T02:05:33.752Z,1.40
2019-03-04T02:07:59.823Z,0.98
2019-03-04T02:10:25.919Z,1.20
2019-03-04T02:12:52.007Z,1.35
2019-03-04T02:15:18.892Z,0.88
2019-03-04T02:17:44.978Z,1.20
2019-03-04T02:20:13.675Z,1.30
2019-03-04T02:22:39.745Z,1.25
2019-03-04T02:25:11.088Z,1.20
2019-03-04T02:27:37.854Z,1.30
2019-03-04T02:30:10.799Z,0.80
2019-03-04T02:32:36.969Z,0.98
2019-03-04T02:35:03.838Z,1.10
2019-03-04T02:37:29.918Z,1.32
2019-03-04T02:39:55.981Z,0.80
2019-03-04T02:42:22.066Z,1.02
2019-03-04T02:44:48.132Z,0.80
2019-03-04T02:47:14.330Z,1.17
2019-03-04T02:49:40.395Z,0.65
2019-03-04T02:52:06.592Z,0.88
2019-03-04T02:54:32.668Z,0.80
2019-03-04T02:56:58.852Z,1.45
2019-03-04T02:59:24.920Z,0.95
2019-03-04T03:01:51.005Z,0.85
2019-03-04T03:04:17.075Z,1.10
2019-03-04T03:06:43.162Z,1.05
2019-03-04T03:09:10.658Z,0.90
2019-03-04T03:11:36.833Z,0.60
2019-03-04T03:14:03.177Z,0.90
2019-03-04T03:16:29.294Z,0.75
2019-03-04T03:18:55.385Z,0.90
2019-03-04T03:21:21.471Z,0.95
2019-03-04T03:23:47.538Z,1.00
2019-03-04T03:26:13.617Z,0.90
2019-03-04T03:28:39.846Z,1.10
2019-03-04T03:31:05.965Z,0.90
2019-03-04T03:33:32.146Z,0.57
2019-03-04T03:35:58.332Z,0.90
2019-03-04T03:38:24.403Z,0.70
2019-03-04T03:40:50.469Z,1.12
2019-03-04T03:43:16.567Z,0.90
2019-03-04T03:45:42.726Z,0.82
2019-03-04T03:48:08.804Z,1.25
2019-03-04T03:50:34.880Z,0.90
2019-03-04T03:53:00.976Z,0.70
2019-03-04T03:55:27.051Z,0.70
2019-03-04T03:57:53.135Z,1.37
2019-03-04T04:00:20.615Z,0.82
2019-03-04T04:02:46.720Z,0.57
2019-03-04T04:05:12.816Z,0.70
2019-03-04T04:07:38.887Z,0.80
2019-03-04T04:10:08.369Z,0.78
2019-03-04T04:12:34.472Z,0.80
2019-03-04T04:15:00.548Z,0.90
2019-03-04T04:17:26.628Z,0.80
2019-03-04T04:19:53.146Z,0.70
2019-03-04T04:22:22.270Z,0.70
2019-03-04T04:24:48.343Z,0.93
2019-03-04T04:27:14.420Z,0.85
2019-03-04T04:29:40.490Z,0.70
2019-03-04T04:32:06.572Z,0.80
2019-03-04T04:34:32.665Z,0.88
2019-03-04T04:36:58.836Z,0.72
2019-03-04T04:39:24.903Z,0.80
2019-03-04T04:41:50.982Z,0.70
2019-03-04T04:44:17.056Z,0.75
2019-03-04T04:46:48.243Z,0.85
2019-03-04T04:49:14.415Z,0.85
2019-03-04T04:51:40.491Z,0.75
2019-03-04T04:54:06.587Z,0.90
2019-03-04T04:56:32.662Z,0.65
2019-03-04T04:58:58.752Z,0.60
2019-03-04T05:01:24.863Z,1.00
2019-03-04T05:03:50.947Z,1.00
2019-03-04T05:06:17.011Z,0.50
2019-03-04T05:08:43.099Z,0.60
2019-03-04T05:11:09.375Z,0.65
2019-03-04T05:13:35.461Z,0.80
2019-03-04T05:16:01.530Z,0.70
2019-03-04T05:18:27.611Z,0.70
2019-03-04T05:20:53.692Z,0.90
2019-03-04T05:23:19.772Z,0.65
2019-03-04T05:25:45.840Z,0.70
2019-03-04T05:28:11.919Z,0.93
2019-03-04T05:30:37.988Z,0.80
2019-03-04T05:33:04.067Z,1.22
2019-03-04T05:35:30.122Z,0.72
2019-03-04T05:37:56.222Z,1.10
2019-03-04T05:40:22.380Z,1.00
2019-03-04T05:42:48.475Z,1.25
2019-03-04T05:45:15.640Z,1.07
2019-03-04T05:47:41.818Z,0.90
2019-03-04T05:50:14.128Z,0.98
2019-03-04T05:52:40.200Z,1.00
2019-03-04T05:55:12.194Z,0.82
2019-03-04T05:57:38.372Z,1.02
2019-03-04T06:00:11.059Z,0.80
2019-03-04T06:02:37.184Z,1.12
2019-03-04T06:05:05.963Z,0.70
2019-03-04T06:07:33.936Z,1.17
2019-03-04T06:10:00.016Z,1.17
2019-03-04T06:12:26.078Z,0.70
2019-03-04T06:14:52.171Z,0.80
2019-03-04T06:17:18.235Z,0.70
2019-03-04T06:19:44.316Z,0.80
2019-03-04T06:22:10.399Z,1.00
2019-03-04T06:24:36.583Z,0.82
2019-03-04T06:27:02.651Z,0.90
2019-03-04T06:29:28.727Z,0.80
2019-03-04T06:31:54.808Z,0.88
2019-03-04T06:34:20.899Z,0.85
2019-03-04T06:36:46.966Z,1.00
2019-03-04T06:39:13.052Z,1.30
2019-03-04T06:41:39.122Z,1.00
2019-03-04T06:44:05.220Z,1.10
2019-03-04T06:46:31.307Z,0.98
2019-03-04T06:48:57.390Z,1.10
2019-03-04T06:51:33.227Z,0.90
2019-03-04T06:54:02.834Z,1.72
2019-03-04T06:56:35.586Z,1.10
2019-03-04T06:59:05.476Z,1.17
2019-03-04T07:01:54.702Z,0.90
2019-03-04T07:04:27.622Z,0.95
2019-03-04T07:06:53.699Z,0.70
2019-03-04T07:09:39.654Z,1.30
2019-03-04T07:12:05.742Z,1.37
2019-03-04T07:14:31.827Z,1.10
2019-03-04T07:16:57.895Z,1.27
2019-03-04T07:19:23.985Z,1.00
2019-03-04T07:21:50.104Z,1.10
2019-03-04T07:24:16.284Z,1.20
2019-03-04T07:26:42.364Z,1.15
2019-03-04T07:29:08.453Z,1.07
2019-03-04T07:31:34.524Z,1.62
2019-03-04T07:34:00.623Z,1.47
2019-03-04T07:36:26.698Z,1.20
2019-03-04T07:38:54.771Z,2.40
2019-03-04T07:41:20.880Z,1.20
2019-03-04T07:43:46.958Z,1.12
2019-03-04T07:46:13.043Z,1.00
2019-03-04T07:48:39.115Z,1.40
2019-03-04T07:51:10.388Z,1.00
2019-03-04T07:53:45.828Z,0.70
2019-03-04T07:56:04.477Z,1.10
2019-03-04T07:58:30.565Z,1.40
2019-03-04T08:01:16.537Z,1.20
2019-03-04T08:03:42.626Z,0.70
2019-03-04T08:06:08.804Z,1.13
2019-03-04T08:08:35.672Z,1.20
2019-03-04T08:11:24.965Z,1.00
2019-03-04T08:14:04.153Z,1.00
2019-03-04T08:16:30.239Z,0.73
2019-03-04T08:18:56.294Z,1.63
2019-03-04T08:21:22.360Z,1.30
2019-03-04T08:23:48.444Z,1.60
2019-03-04T08:26:14.514Z,1.20
2019-03-04T08:28:40.599Z,1.80
2019-03-04T08:31:07.178Z,0.90
2019-03-04T08:33:33.253Z,1.13
2019-03-04T08:35:59.352Z,1.20
2019-03-04T08:38:25.438Z,1.57
2019-03-04T08:40:51.500Z,1.57
2019-03-04T08:43:17.585Z,1.10
2019-03-04T08:45:43.766Z,1.17
2019-03-04T08:48:09.941Z,1.30
2019-03-04T08:50:36.009Z,1.23
2019-03-04T08:53:02.109Z,1.10
2019-03-04T08:55:28.276Z,1.67
2019-03-04T08:57:54.343Z,1.03
2019-03-04T09:00:24.029Z,1.20
2019-03-04T09:02:50.109Z,1.77
2019-03-04T09:05:16.415Z,1.77
2019-03-04T09:07:42.585Z,1.43
2019-03-04T09:10:18.059Z,1.40
2019-03-04T09:12:44.143Z,1.70
2019-03-04T09:15:12.117Z,1.10
2019-03-04T09:17:38.521Z,1.13
2019-03-04T09:20:07.982Z,1.00
2019-03-04T09:22:34.081Z,1.00
2019-03-04T09:25:00.427Z,1.10
2019-03-04T09:27:26.604Z,1.20
2019-03-04T09:29:52.674Z,1.00
2019-03-04T09:32:18.751Z,1.10
2019-03-04T09:34:44.830Z,1.53
2019-03-04T09:37:10.919Z,0.83
2019-03-04T09:39:37.006Z,1.17
2019-03-04T09:42:04.986Z,0.70
2019-03-04T09:44:31.157Z,1.00
2019-03-04T09:46:57.239Z,1.00
2019-03-04T09:49:23.307Z,1.10
2019-03-04T09:51:49.407Z,0.90
2019-03-04T09:54:15.472Z,1.47
2019-03-04T09:56:41.568Z,1.50
2019-03-04T09:59:07.831Z,1.33
2019-03-04T10:01:40.688Z,1.10
2019-03-04T10:04:10.579Z,1.10
2019-03-04T10:06:49.235Z,1.37
2019-03-04T10:09:45.142Z,1.17
2019-03-04T10:12:26.969Z,1.10
2019-03-04T10:15:17.862Z,1.20
2019-03-04T10:18:06.184Z,1.20
2019-03-04T10:20:56.784Z,1.80
2019-03-04T10:23:52.646Z,1.50
2019-03-04T10:26:51.317Z,1.60
2019-03-04T10:29:38.235Z,0.87
2019-03-04T10:32:14.168Z,1.50
2019-03-04T10:35:00.677Z,1.70
2019-03-04T10:37:36.198Z,0.93
2019-03-04T10:40:26.175Z,1.70
2019-03-04T10:43:08.446Z,1.20
2019-03-04T10:45:47.652Z,1.30
2019-03-04T10:48:13.752Z,0.93
2019-03-04T10:50:39.814Z,1.20
2019-03-04T10:53:05.915Z,1.53
2019-03-04T10:55:41.204Z,1.03
2019-03-04T10:57:59.966Z,1.30
2019-03-04T11:00:26.051Z,1.60
2019-03-04T11:02:52.120Z,1.73
2019-03-04T11:05:18.291Z,1.37
2019-03-04T11:07:44.380Z,2.07
2019-03-04T11:10:13.511Z,1.87
2019-03-04T11:12:39.602Z,1.40
2019-03-04T11:15:23.481Z,1.90
2019-03-04T11:17:49.675Z,1.57
2019-03-04T11:20:15.853Z,1.27
2019-03-04T11:22:42.030Z,1.97
2019-03-04T11:25:08.394Z,4.87
2019-03-04T11:27:34.488Z,1.33
2019-03-04T11:30:00.567Z,1.97
2019-03-04T11:32:26.651Z,1.87
2019-03-04T11:34:52.719Z,1.37
2019-03-04T11:37:18.811Z,1.20
2019-03-04T11:39:55.409Z,1.40
2019-03-04T11:42:21.495Z,1.70
2019-03-04T11:44:47.563Z,1.77
2019-03-04T11:47:13.627Z,1.70
2019-03-04T11:49:40.339Z,0.90
2019-03-04T11:52:06.603Z,1.00
2019-03-04T11:54:32.675Z,1.00
2019-03-04T11:56:58.766Z,5.77
2019-03-04T11:59:24.827Z,1.00
2019-03-04T12:01:50.907Z,1.53
2019-03-04T12:04:16.994Z,1.20
2019-03-04T12:06:43.326Z,1.40
2019-03-04T12:09:12.260Z,16.07
2019-03-04T12:11:38.583Z,0.70
2019-03-04T12:14:04.739Z,1.40
2019-03-04T12:16:30.827Z,14.87
2019-03-04T12:18:56.937Z,0.90
2019-03-04T12:21:23.116Z,1.37
2019-03-04T12:23:49.196Z,1.30
2019-03-04T12:26:15.276Z,1.60
2019-03-04T12:28:41.355Z,1.98
2019-03-04T12:31:07.426Z,2.05
2019-03-04T12:33:33.517Z,1.65
2019-03-04T12:35:59.691Z,1.20
2019-03-04T12:38:25.806Z,1.25
2019-03-04T12:40:51.955Z,1.47
2019-03-04T12:43:18.030Z,1.60
2019-03-04T12:45:44.119Z,1.30
2019-03-04T12:48:10.210Z,1.57
2019-03-04T12:50:36.400Z,0.50
2019-03-04T12:53:03.567Z,7.62
2019-03-04T12:55:29.648Z,1.42
2019-03-04T12:57:55.735Z,2.08
2019-03-04T13:00:29.166Z,1.87
2019-03-04T13:02:57.896Z,1.75
2019-03-04T13:05:23.238Z,0.47
2019-03-04T13:07:49.296Z,1.60
2019-03-04T13:10:16.600Z,1.30
2019-03-04T13:12:43.261Z,0.98
2019-03-04T13:15:12.625Z,1.47
2019-03-04T13:17:38.903Z,0.70
2019-03-04T13:20:08.767Z,9.38
2019-03-04T13:22:34.847Z,0.90
2019-03-04T13:25:00.921Z,2.47
2019-03-04T13:27:26.999Z,1.45
2019-03-04T13:29:53.074Z,1.15
2019-03-04T13:32:19.156Z,1.45
2019-03-04T13:34:45.227Z,1.10
2019-03-04T13:37:11.299Z,1.20
2019-03-04T13:39:37.379Z,0.85
2019-03-04T13:42:03.560Z,1.75
2019-03-04T13:44:29.626Z,2.35
2019-03-04T13:46:55.714Z,1.80
2019-03-04T13:49:21.869Z,1.25
2019-03-04T13:51:48.250Z,1.50
2019-03-04T13:54:14.326Z,1.62
2019-03-04T13:56:40.394Z,1.92
2019-03-04T13:59:06.471Z,1.35
2019-03-04T14:01:32.543Z,1.10
2019-03-04T14:03:58.623Z,1.85
2019-03-04T14:06:24.704Z,0.93
2019-03-04T14:08:52.831Z,1.35
2019-03-04T14:11:19.051Z,1.70
2019-03-04T14:13:45.158Z,1.42
2019-03-04T14:16:31.116Z,1.80
2019-03-04T14:18:57.246Z,1.25
2019-03-04T14:21:23.403Z,1.55
2019-03-04T14:23:49.479Z,1.50
2019-03-04T14:26:15.540Z,1.27
2019-03-04T14:28:41.627Z,1.25
2019-03-04T14:31:07.691Z,0.90
2019-03-04T14:33:33.885Z,1.12
2019-03-04T14:35:59.951Z,2.08
2019-03-04T14:38:26.023Z,2.15
2019-03-04T14:40:52.099Z,3.17
2019-03-04T14:43:18.203Z,1.22
2019-03-04T14:45:44.271Z,1.25
2019-03-04T14:48:10.351Z,1.82
2019-03-04T14:50:36.427Z,1.35
2019-03-04T14:53:03.101Z,1.30
2019-03-04T14:55:32.396Z,1.25
2019-03-04T14:57:58.480Z,1.82
2019-03-04T15:00:31.367Z,1.35
2019-03-04T15:02:57.428Z,1.32
2019-03-04T15:05:23.615Z,1.67
2019-03-04T15:07:49.690Z,4.15
2019-03-04T15:10:15.774Z,1.47
2019-03-04T15:12:41.931Z,1.10
2019-03-04T15:15:14.618Z,2.22
2019-03-04T15:17:40.708Z,1.45
2019-03-04T15:20:10.392Z,1.52
2019-03-04T15:22:36.473Z,2.80
2019-03-04T15:25:05.953Z,0.95
2019-03-04T15:27:32.055Z,0.90
2019-03-04T15:29:58.222Z,1.82
2019-03-04T15:32:24.383Z,1.77
2019-03-04T15:34:50.455Z,1.27
2019-03-04T15:37:16.646Z,1.90
2019-03-04T15:39:42.711Z,1.30
2019-03-04T15:42:08.804Z,1.50
2019-03-04T15:44:34.871Z,1.20
2019-03-04T15:47:00.964Z,1.82
2019-03-04T15:49:27.040Z,1.82
2019-03-04T15:51:53.191Z,1.40
2019-03-04T15:54:19.293Z,3.27
2019-03-04T15:56:45.457Z,1.70
2019-03-04T15:59:11.546Z,1.92
2019-03-04T16:01:37.611Z,2.08
2019-03-04T16:04:03.724Z,1.75
2019-03-04T16:06:29.806Z,2.30
2019-03-04T16:08:55.879Z,1.42
2019-03-04T16:11:21.961Z,1.65
2019-03-04T16:13:53.329Z,1.70
2019-03-04T16:16:16.231Z,3.47
2019-03-04T16:18:42.352Z,1.00
2019-03-04T16:21:08.543Z,2.27
2019-03-04T16:23:34.623Z,1.40
2019-03-04T16:26:04.427Z,1.37
2019-03-04T16:28:30.512Z,3.90
2019-03-04T16:30:56.614Z,2.12
2019-03-04T16:33:23.587Z,1.85
2019-03-04T16:35:49.671Z,5.50
2019-03-04T16:38:15.854Z,2.25
2019-03-04T16:40:41.919Z,1.65
2019-03-04T16:43:08.119Z,0.95
2019-03-04T16:45:34.220Z,2.00
2019-03-04T16:48:00.392Z,1.65
2019-03-04T16:50:29.286Z,1.02
2019-03-04T16:53:01.467Z,2.30
2019-03-04T16:55:27.550Z,1.72
2019-03-04T16:57:53.626Z,1.57
2019-03-04T17:00:20.624Z,2.12
2019-03-04T17:02:47.304Z,2.60
2019-03-04T17:05:15.472Z,1.87
2019-03-04T17:07:42.266Z,4.37
2019-03-04T17:10:10.650Z,2.25
2019-03-04T17:12:36.931Z,1.42
2019-03-04T17:15:06.640Z,2.05
2019-03-04T17:17:32.725Z,1.52
2019-03-04T17:19:58.809Z,10.80
2019-03-04T17:22:24.899Z,3.40
2019-03-04T17:24:50.987Z,3.95
2019-03-04T17:27:17.174Z,2.20
2019-03-04T17:29:43.254Z,1.52
2019-03-04T17:32:09.480Z,3.90
2019-03-04T17:34:35.659Z,2.15
2019-03-04T17:37:01.836Z,1.22
2019-03-04T17:39:27.924Z,1.40
2019-03-04T17:41:54.015Z,1.85
2019-03-04T17:44:21.994Z,1.55
2019-03-04T17:46:48.089Z,37.45
2019-03-04T17:49:14.246Z,1.75
2019-03-04T17:51:40.330Z,103.17
2019-03-04T17:54:06.395Z,5.00
2019-03-04T17:56:32.462Z,19.02
2019-03-04T17:58:58.550Z,7.58
2019-03-04T18:01:27.577Z,29.80
2019-03-04T18:03:53.652Z,191.15
2019-03-04T18:06:19.763Z,127.25
2019-03-04T18:08:45.833Z,186.23
2019-03-04T18:11:11.903Z,106.58
2019-03-04T18:13:37.987Z,121.10
2019-03-04T18:16:04.064Z,125.22
2019-03-04T18:18:30.242Z,119.85
2019-03-04T18:20:56.347Z,116.88
2019-03-04T18:23:22.426Z,130.20
2019-03-04T18:26:04.171Z,109.12
2019-03-04T18:28:57.530Z,115.40
2019-03-04T18:31:31.355Z,118.30
2019-03-04T18:34:03.954Z,116.45
2019-03-04T18:36:33.823Z,113.05
2019-03-04T18:39:24.762Z,120.13
2019-03-04T18:42:28.171Z,126.45
2019-03-04T18:45:16.798Z,163.20
2019-03-04T18:47:55.469Z,129.78
2019-03-04T18:50:23.082Z,145.07
2019-03-04T18:52:49.520Z,182.62
2019-03-04T18:55:15.626Z,92.22
2019-03-04T18:57:41.689Z,127.62
2019-03-04T19:00:14.480Z,114.20
2019-03-04T19:02:40.570Z,47.75
2019-03-04T19:05:08.431Z,96.40
2019-03-04T19:07:34.506Z,69.77
2019-03-04T19:10:00.603Z,44.30
2019-03-04T19:12:26.771Z,112.95
2019-03-04T19:14:52.839Z,55.23
2019-03-04T19:17:18.925Z,67.70
2019-03-04T19:19:45.008Z,107.25
2019-03-04T19:22:11.120Z,2.75
2019-03-04T19:24:37.333Z,1.00
2019-03-04T19:27:05.459Z,0.40
2019-03-04T19:29:31.640Z,0.93
2019-03-04T19:31:57.698Z,130.05
2019-03-04T19:34:23.906Z,0.88
2019-03-04T19:37:07.852Z,0.75
2019-03-04T19:39:34.545Z,0.42
2019-03-04T19:42:00.615Z,0.55
2019-03-04T19:44:26.800Z,0.90
2019-03-04T19:46:53.058Z,1.22
2019-03-04T19:49:19.302Z,0.60
2019-03-04T19:51:45.359Z,0.80
2019-03-04T19:54:12.925Z,1.25
2019-03-04T19:56:39.016Z,0.90
2019-03-04T19:59:05.187Z,0.70
2019-03-04T20:01:31.246Z,0.65
2019-03-04T20:03:57.328Z,0.78
2019-03-04T20:06:23.403Z,0.60
2019-03-04T20:08:49.503Z,0.80
2019-03-04T20:11:15.682Z,1.30
2019-03-04T20:13:41.763Z,1.15
2019-03-04T20:16:07.940Z,0.90
2019-03-04T20:18:34.084Z,1.00
2019-03-04T20:21:00.364Z,1.00
2019-03-04T20:23:26.505Z,1.40
2019-03-04T20:25:53.094Z,1.22
2019-03-04T20:28:19.339Z,1.20
2019-03-04T20:30:45.403Z,1.00
2019-03-04T20:33:11.562Z,0.95
2019-03-04T20:35:37.802Z,1.20
2019-03-04T20:38:22.348Z,1.92
2019-03-04T20:40:48.499Z,1.37
2019-03-04T20:43:14.608Z,1.42
2019-03-04T20:45:40.673Z,1.57
2019-03-04T20:48:06.757Z,2.27
2019-03-04T20:50:32.927Z,2.02
2019-03-04T20:52:59.095Z,2.52
2019-03-04T20:55:25.178Z,1.10
2019-03-04T20:57:51.234Z,1.30
2019-03-04T21:00:23.028Z,1.10
2019-03-04T21:02:49.197Z,1.45
2019-03-04T21:05:15.361Z,1.22
2019-03-04T21:07:41.952Z,0.70
2019-03-04T21:10:11.567Z,1.35
2019-03-04T21:12:38.347Z,0.80
2019-03-04T21:15:07.810Z,1.30
2019-03-04T21:17:33.886Z,1.30
2019-03-04T21:19:59.959Z,1.10
2019-03-04T21:22:26.131Z,1.10
2019-03-04T21:24:52.220Z,0.85
2019-03-04T21:27:18.803Z,0.80
2019-03-04T21:29:51.578Z,0.88
2019-03-04T21:32:24.303Z,1.25
2019-03-04T21:35:19.830Z,0.70
2019-03-04T21:37:46.419Z,0.78
2019-03-04T21:40:19.051Z,0.80
2019-03-04T21:42:48.946Z,0.60
2019-03-04T21:45:48.080Z,0.98
2019-03-04T21:48:23.648Z,0.60
2019-03-04T21:50:56.472Z,0.57
2019-03-04T21:53:32.360Z,0.70
2019-03-04T21:56:14.691Z,0.68
2019-03-04T21:58:40.785Z,1.50
2019-03-04T22:01:19.945Z,0.78
2019-03-04T22:03:46.144Z,1.37
2019-03-04T22:06:12.215Z,0.57
2019-03-04T22:08:38.383Z,0.80
2019-03-04T22:11:04.476Z,0.50
2019-03-04T22:13:30.644Z,0.80
2019-03-04T22:15:56.826Z,0.60
2019-03-04T22:18:22.893Z,0.40
2019-03-04T22:20:49.902Z,0.80
2019-03-04T22:23:16.078Z,0.68
2019-03-04T22:25:42.167Z,2.42
2019-03-04T22:28:08.232Z,1.10
2019-03-04T22:30:34.302Z,1.07
2019-03-04T22:33:00.375Z,0.80
2019-03-04T22:35:26.541Z,0.78
2019-03-04T22:37:53.321Z,0.70
2019-03-04T22:40:22.648Z,0.90
2019-03-04T22:42:48.822Z,1.12
2019-03-04T22:45:19.792Z,1.27
2019-03-04T22:47:47.336Z,0.70
2019-03-04T22:50:15.209Z,1.12
2019-03-04T22:52:41.378Z,0.90
2019-03-04T22:55:10.460Z,0.80
2019-03-04T22:57:36.531Z,0.90
2019-03-04T23:00:25.171Z,1.12
2019-03-04T23:02:54.936Z,0.60
2019-03-04T23:05:19.440Z,0.62
2019-03-04T23:07:45.606Z,0.40
2019-03-04T23:10:12.113Z,0.60
2019-03-04T23:12:44.800Z,72.05
2019-03-04T23:15:30.757Z,0.50
2019-03-04T23:17:56.836Z,124.97
2019-03-04T23:20:22.922Z,0.40
2019-03-04T23:22:48.997Z,0.40
2019-03-04T23:25:15.080Z,0.42
2019-03-04T23:27:41.147Z,0.30
2019-03-04T23:30:11.018Z,0.30
2019-03-04T23:32:37.102Z,0.40
2019-03-04T23:35:03.467Z,0.65
2019-03-04T23:37:29.553Z,0.60
2019-03-04T23:39:55.619Z,0.50
2019-03-04T23:42:21.728Z,0.57
2019-03-04T23:44:47.795Z,0.62
2019-03-04T23:47:13.880Z,2.37
2019-03-04T23:49:39.963Z,0.50
2019-03-04T23:52:06.050Z,0.42
2019-03-04T23:54:32.161Z,0.72
2019-03-04T23:56:58.355Z,54.60
2019-03-04T23:59:25.476Z,1.30
